Current Weather

Warsaw Muni

Warsaw, Indiana (KASW)

Report from: Wednesday, May 29, 2024 7:15 PM EDT
Current time: Wednesday, May 29, 2024 7:40 PM EDT

Nearby weather – Weather history – Daily summaries
Weather forecast

Temperature18.7°C (65.7°F)
Dew point10.4°C (50.7°F)
Winds 7 kts (3.6 m/s, 8.1 mph) North-Northwest (330°)
Visibility10 mi. (16.1 km)
Clouds Sky clear
Altimeter30.13 in.Hg (1020 mB)
Relative humidity59 %
Density altitude375 ft. (114 m)
Remarks Fully automated report
Automated weather observing station with precipitation discriminator
Flight conditions Visual Meteorological Conditions
Raw dataKASW 292315Z AUTO 33007KT 10SM CLR 18/10 A3013 RMK AO2 T01870104
An error has occurred. This application may no longer respond until reloaded. Reload 🗙